createdAt,value
2018-02-13T00:02:14.749Z,7.60
2018-02-13T00:04:42.993Z,8.90
2018-02-13T00:07:11.828Z,8.23
2018-02-13T00:09:40.090Z,8.70
2018-02-13T00:12:08.353Z,8.33
2018-02-13T00:14:36.613Z,9.13
2018-02-13T00:17:05.429Z,8.50
2018-02-13T00:19:33.671Z,8.80
2018-02-13T00:22:01.921Z,8.00
2018-02-13T00:24:30.167Z,8.30
2018-02-13T00:26:58.422Z,7.40
2018-02-13T00:29:26.667Z,7.00
2018-02-13T00:31:54.909Z,7.53
2018-02-13T00:34:23.167Z,7.70
2018-02-13T00:36:51.467Z,8.10
2018-02-13T00:39:20.133Z,7.43
2018-02-13T00:41:48.388Z,7.73
2018-02-13T00:44:16.626Z,7.40
2018-02-13T00:46:44.899Z,7.50
2018-02-13T00:49:13.156Z,8.43
2018-02-13T00:51:42.137Z,8.77
2018-02-13T00:54:11.174Z,8.77
2018-02-13T00:56:39.429Z,8.73
2018-02-13T00:59:07.681Z,7.93
2018-02-13T01:01:35.938Z,8.53
2018-02-13T01:04:04.185Z,9.40
2018-02-13T01:06:32.430Z,9.60
2018-02-13T01:09:00.681Z,7.83
2018-02-13T01:11:29.574Z,9.73
2018-02-13T01:13:58.539Z,8.90
2018-02-13T01:16:26.798Z,9.67
2018-02-13T01:18:55.055Z,8.20
2018-02-13T01:21:23.305Z,9.67
2018-02-13T01:23:52.350Z,9.43
2018-02-13T01:26:20.754Z,7.90
2018-02-13T01:28:49.022Z,8.83
2018-02-13T01:31:17.268Z,9.53
2018-02-13T01:33:45.532Z,10.20
2018-02-13T01:36:13.784Z,9.40
2018-02-13T01:38:42.048Z,9.10
2018-02-13T01:41:10.293Z,9.10
2018-02-13T01:43:38.545Z,8.50
2018-02-13T01:46:06.794Z,8.77
2018-02-13T01:48:35.702Z,8.53
2018-02-13T01:51:03.950Z,8.77
2018-02-13T01:53:32.808Z,8.20
2018-02-13T01:56:01.085Z,8.70
2018-02-13T01:58:29.341Z,6.87
2018-02-13T02:00:57.592Z,8.73
2018-02-13T02:03:25.884Z,8.40
2018-02-13T02:05:55.021Z,8.20
2018-02-13T02:08:23.281Z,8.33
2018-02-13T02:10:52.817Z,9.60
2018-02-13T02:13:21.067Z,8.60
2018-02-13T02:15:49.324Z,8.40
2018-02-13T02:18:17.737Z,9.57
2018-02-13T02:20:45.985Z,8.80
2018-02-13T02:23:14.231Z,7.33
2018-02-13T02:25:42.511Z,8.30
2018-02-13T02:28:11.096Z,8.67
2018-02-13T02:30:39.362Z,9.27
2018-02-13T02:33:07.606Z,8.10
2018-02-13T02:35:35.862Z,8.63
2018-02-13T02:38:04.105Z,7.97
2018-02-13T02:40:32.346Z,7.83
2018-02-13T02:43:05.537Z,7.97
2018-02-13T02:45:33.790Z,8.43
2018-02-13T02:48:02.376Z,6.90
2018-02-13T02:50:30.609Z,7.30
2018-02-13T02:52:58.864Z,7.10
2018-02-13T02:55:27.113Z,7.20
2018-02-13T02:57:55.353Z,7.47
2018-02-13T03:00:23.721Z,7.40
2018-02-13T03:02:51.985Z,7.50
2018-02-13T03:05:20.238Z,7.60
2018-02-13T03:07:48.497Z,7.33
2018-02-13T03:10:16.791Z,8.50
2018-02-13T03:12:45.050Z,8.33
2018-02-13T03:15:13.313Z,7.97
2018-02-13T03:17:41.565Z,9.40
2018-02-13T03:20:10.994Z,9.87
2018-02-13T03:22:39.653Z,9.63
2018-02-13T03:25:09.959Z,9.10
2018-02-13T03:27:38.202Z,9.07
2018-02-13T03:30:09.147Z,9.20
2018-02-13T03:32:37.217Z,9.13
2018-02-13T03:35:07.321Z,9.20
2018-02-13T03:37:35.573Z,9.67
2018-02-13T03:40:03.817Z,9.37
2018-02-13T03:42:32.068Z,8.90
2018-02-13T03:45:00.313Z,8.93
2018-02-13T03:47:28.557Z,8.70
2018-02-13T03:49:56.816Z,9.30
2018-02-13T03:52:25.195Z,10.10
2018-02-13T03:54:53.444Z,10.17
2018-02-13T03:57:21.701Z,10.07
2018-02-13T03:59:49.997Z,9.17
2018-02-13T04:02:18.248Z,11.33
2018-02-13T04:04:46.524Z,10.93
2018-02-13T04:07:15.002Z,10.70
2018-02-13T04:09:43.270Z,9.73
2018-02-13T04:12:11.529Z,11.57
2018-02-13T04:14:39.784Z,10.70
2018-02-13T04:17:08.037Z,11.13
2018-02-13T04:19:36.302Z,10.50
2018-02-13T04:22:04.657Z,9.97
2018-02-13T04:24:32.926Z,11.17
2018-02-13T04:27:01.205Z,9.97
2018-02-13T04:29:29.446Z,10.67
2018-02-13T04:31:57.684Z,12.97
2018-02-13T04:34:25.945Z,13.40
2018-02-13T04:36:54.214Z,13.53
2018-02-13T04:39:22.460Z,12.50
2018-02-13T04:41:50.709Z,12.80
2018-02-13T04:44:19.569Z,13.17
2018-02-13T04:46:47.838Z,12.50
2018-02-13T04:49:16.097Z,13.97
2018-02-13T04:51:44.956Z,13.37
2018-02-13T04:54:13.227Z,12.47
2018-02-13T04:56:41.497Z,13.10
2018-02-13T04:59:09.762Z,11.50
2018-02-13T05:01:38.021Z,10.70
2018-02-13T05:04:06.276Z,10.70
2018-02-13T05:06:35.356Z,11.27
2018-02-13T05:09:03.426Z,10.40
2018-02-13T05:11:31.683Z,10.53
2018-02-13T05:13:59.925Z,10.70
2018-02-13T05:16:28.200Z,10.47
2018-02-13T05:18:56.453Z,11.40
2018-02-13T05:21:25.352Z,11.60
2018-02-13T05:23:53.615Z,56.90
2018-02-13T05:26:21.865Z,16.47
2018-02-13T05:28:50.129Z,11.30
2018-02-13T05:31:18.387Z,11.23
2018-02-13T05:33:46.646Z,12.20
2018-02-13T05:36:15.749Z,11.83
2018-02-13T05:38:43.996Z,11.33
2018-02-13T05:41:12.253Z,11.53
2018-02-13T05:43:40.509Z,13.07
2018-02-13T05:46:08.753Z,12.00
2018-02-13T05:48:37.002Z,11.87
2018-02-13T05:51:05.369Z,14.00
2018-02-13T05:53:34.792Z,13.30
2018-02-13T05:56:03.075Z,12.60
2018-02-13T05:58:31.334Z,15.50
2018-02-13T06:00:59.593Z,12.10
2018-02-13T06:03:27.859Z,23.50
2018-02-13T06:05:56.139Z,15.20
2018-02-13T06:08:24.382Z,12.07
2018-02-13T06:10:52.638Z,10.93
2018-02-13T06:13:20.902Z,11.83
2018-02-13T06:15:49.146Z,13.37
2018-02-13T06:18:17.393Z,19.00
2018-02-13T06:20:45.654Z,12.87
2018-02-13T06:23:13.910Z,12.83
2018-02-13T06:25:42.161Z,13.40
2018-02-13T06:28:10.410Z,20.37
2018-02-13T06:30:39.161Z,12.93
2018-02-13T06:33:07.437Z,12.40
2018-02-13T06:35:35.701Z,12.07
2018-02-13T06:38:03.951Z,13.87
2018-02-13T06:40:32.201Z,12.10
2018-02-13T06:43:00.482Z,11.20
2018-02-13T06:45:28.766Z,11.10
2018-02-13T06:47:57.012Z,11.70
2018-02-13T06:50:25.273Z,11.77
2018-02-13T06:52:53.560Z,9.70
2018-02-13T06:55:21.813Z,10.27
2018-02-13T06:57:50.100Z,11.33
2018-02-13T07:00:18.385Z,10.17
2018-02-13T07:02:46.692Z,10.90
2018-02-13T07:05:14.958Z,10.83
2018-02-13T07:07:43.296Z,11.07
2018-02-13T07:10:11.662Z,10.73
2018-02-13T07:12:39.919Z,10.70
2018-02-13T07:15:08.205Z,9.80
2018-02-13T07:17:36.449Z,10.30
2018-02-13T07:20:04.730Z,10.93
2018-02-13T07:22:32.994Z,12.00
2018-02-13T07:25:01.280Z,10.67
2018-02-13T07:27:29.550Z,10.90
2018-02-13T07:29:57.809Z,11.73
2018-02-13T07:32:26.082Z,11.13
2018-02-13T07:34:54.356Z,10.07
2018-02-13T07:37:22.621Z,11.63
2018-02-13T07:39:50.875Z,9.63
2018-02-13T07:42:19.134Z,10.07
2018-02-13T07:44:47.425Z,10.40
2018-02-13T07:47:15.527Z,10.17
2018-02-13T07:49:43.897Z,9.53
2018-02-13T07:52:12.165Z,12.00
2018-02-13T07:54:40.421Z,10.37
2018-02-13T07:57:08.670Z,11.47
2018-02-13T07:59:36.928Z,12.50
2018-02-13T08:02:05.189Z,9.73
2018-02-13T08:04:33.449Z,9.93
2018-02-13T08:07:01.689Z,9.00
2018-02-13T08:09:29.933Z,10.20
2018-02-13T08:11:58.188Z,9.07
2018-02-13T08:14:26.549Z,8.87
2018-02-13T08:16:54.792Z,8.10
2018-02-13T08:19:23.048Z,9.30
2018-02-13T08:21:51.285Z,7.70
2018-02-13T08:24:19.791Z,8.63
2018-02-13T08:26:48.052Z,7.40
2018-02-13T08:29:16.302Z,9.03
2018-02-13T08:31:44.548Z,8.80
2018-02-13T08:34:12.788Z,7.20
2018-02-13T08:36:41.053Z,9.13
2018-02-13T08:39:09.309Z,8.60
2018-02-13T08:41:37.565Z,8.67
2018-02-13T08:44:05.818Z,7.97
2018-02-13T08:46:35.002Z,9.40
2018-02-13T08:49:03.258Z,9.20
2018-02-13T08:51:31.497Z,9.17
2018-02-13T08:53:59.761Z,10.13
2018-02-13T08:56:27.838Z,9.30
2018-02-13T08:58:56.093Z,9.60
2018-02-13T09:01:24.153Z,9.00
2018-02-13T09:03:52.416Z,9.40
2018-02-13T09:06:20.712Z,8.67
2018-02-13T09:08:48.969Z,9.37
2018-02-13T09:11:17.225Z,7.30
2018-02-13T09:13:45.477Z,10.33
2018-02-13T09:16:13.725Z,10.40
2018-02-13T09:18:41.973Z,10.97
2018-02-13T09:21:10.237Z,19.77
2018-02-13T09:23:38.489Z,11.97
2018-02-13T09:26:07.314Z,20.53
2018-02-13T09:28:35.579Z,8.70
2018-02-13T09:31:03.844Z,10.97
2018-02-13T09:33:32.096Z,9.60
2018-02-13T09:36:00.349Z,10.37
2018-02-13T09:38:28.649Z,10.27
2018-02-13T09:40:56.908Z,9.10
2018-02-13T09:43:25.163Z,9.13
2018-02-13T09:45:53.406Z,9.73
2018-02-13T09:48:23.680Z,8.50
2018-02-13T09:50:51.940Z,9.07
2018-02-13T09:53:20.524Z,8.90
2018-02-13T09:55:48.766Z,9.40
2018-02-13T09:58:17.962Z,9.83
2018-02-13T10:00:46.229Z,9.60
2018-02-13T10:03:14.548Z,9.20
2018-02-13T10:05:42.962Z,8.50
2018-02-13T10:08:11.206Z,10.27
2018-02-13T10:10:39.461Z,10.37
2018-02-13T10:13:07.724Z,8.93
2018-02-13T10:15:35.992Z,10.67
2018-02-13T10:18:04.566Z,7.23
2018-02-13T10:20:32.624Z,7.37
2018-02-13T10:23:00.887Z,9.03
2018-02-13T10:25:29.138Z,8.47
2018-02-13T10:27:57.386Z,8.73
2018-02-13T10:30:25.845Z,8.80
2018-02-13T10:32:54.098Z,8.73
2018-02-13T10:35:22.354Z,8.10
2018-02-13T10:37:50.600Z,9.60
2018-02-13T10:40:18.849Z,9.30
2018-02-13T10:42:47.109Z,7.20
2018-02-13T10:45:16.148Z,17.10
2018-02-13T10:47:44.466Z,9.00
2018-02-13T10:50:13.367Z,8.73
2018-02-13T10:52:41.607Z,8.70
2018-02-13T10:55:11.402Z,9.50
2018-02-13T10:57:39.646Z,8.80
2018-02-13T11:00:09.653Z,8.80
2018-02-13T11:02:37.896Z,9.20
2018-02-13T11:05:08.569Z,8.03
2018-02-13T11:07:37.429Z,9.17
2018-02-13T11:10:07.986Z,7.57
2018-02-13T11:12:36.262Z,8.20
2018-02-13T11:15:04.006Z,8.70
2018-02-13T11:17:32.074Z,8.90
2018-02-13T11:20:00.156Z,8.30
2018-02-13T11:22:28.437Z,7.83
2018-02-13T11:24:56.686Z,7.57
2018-02-13T11:27:24.958Z,7.87
2018-02-13T11:29:53.346Z,10.33
2018-02-13T11:32:21.607Z,7.40
2018-02-13T11:34:50.602Z,8.03
2018-02-13T11:37:18.962Z,8.13
2018-02-13T11:39:47.217Z,7.70
2018-02-13T11:42:15.481Z,7.07
2018-02-13T11:44:43.728Z,8.07
2018-02-13T11:47:11.977Z,9.83
2018-02-13T11:49:41.149Z,9.03
2018-02-13T11:52:09.432Z,9.00
2018-02-13T11:54:38.505Z,10.17
2018-02-13T11:57:06.748Z,9.00
2018-02-13T11:59:34.991Z,9.90
2018-02-13T12:02:03.238Z,9.37
2018-02-13T12:04:31.501Z,10.60
2018-02-13T12:06:59.772Z,9.90
2018-02-13T12:09:28.039Z,10.83
2018-02-13T12:11:56.318Z,10.33
2018-02-13T12:14:24.617Z,10.00
2018-02-13T12:16:52.889Z,9.30
2018-02-13T12:19:21.157Z,7.83
2018-02-13T12:21:49.408Z,9.50
2018-02-13T12:24:17.669Z,7.43
2018-02-13T12:26:46.170Z,8.03
2018-02-13T12:29:14.417Z,7.50
2018-02-13T12:31:42.717Z,8.37
2018-02-13T12:34:10.920Z,5.90
2018-02-13T12:36:39.165Z,6.90
2018-02-13T12:39:07.068Z,7.90
2018-02-13T12:41:35.133Z,7.20
2018-02-13T12:44:03.028Z,7.03
2018-02-13T12:46:32.022Z,8.20
2018-02-13T12:49:00.323Z,8.13
2018-02-13T12:51:28.412Z,8.30
2018-02-13T12:53:56.882Z,9.90
2018-02-13T12:56:24.842Z,12.53
2018-02-13T12:58:53.185Z,10.03
2018-02-13T13:01:21.437Z,9.57
2018-02-13T13:03:49.534Z,8.20
2018-02-13T13:06:18.570Z,8.57
2018-02-13T13:08:46.825Z,9.03
2018-02-13T13:11:15.074Z,7.13
2018-02-13T13:13:43.323Z,6.97
2018-02-13T13:16:11.805Z,7.83
2018-02-13T13:18:40.058Z,8.07
2018-02-13T13:21:08.618Z,8.53
2018-02-13T13:23:36.917Z,7.17
2018-02-13T13:26:05.169Z,8.37
2018-02-13T13:28:34.488Z,8.33
2018-02-13T13:31:02.749Z,7.60
2018-02-13T13:33:31.004Z,8.00
2018-02-13T13:35:59.753Z,7.20
2018-02-13T13:38:28.005Z,6.83
2018-02-13T13:40:57.046Z,7.67
2018-02-13T13:43:25.296Z,7.17
2018-02-13T13:45:54.183Z,9.33
2018-02-13T13:48:22.904Z,9.80
2018-02-13T13:50:51.153Z,7.47
2018-02-13T13:53:19.453Z,7.43
2018-02-13T13:55:47.706Z,6.93
2018-02-13T13:58:15.962Z,6.00
2018-02-13T14:00:45.721Z,3.60
2018-02-13T14:03:14.521Z,3.63
2018-02-13T14:05:42.762Z,5.37
2018-02-13T14:08:11.023Z,3.97
2018-02-13T14:10:39.316Z,3.93
2018-02-13T14:13:07.569Z,3.77
2018-02-13T14:15:35.842Z,3.43
2018-02-13T14:18:03.920Z,4.03
2018-02-13T14:20:32.202Z,4.40
2018-02-13T14:23:00.190Z,4.00
2018-02-13T14:25:28.945Z,3.80
2018-02-13T14:27:56.859Z,4.80
2018-02-13T14:30:26.290Z,5.07
2018-02-13T14:32:54.543Z,5.63
2018-02-13T14:35:22.789Z,4.50
2018-02-13T14:37:51.769Z,8.07
2018-02-13T14:40:20.013Z,5.63
2018-02-13T14:42:48.269Z,7.50
2018-02-13T14:45:17.084Z,7.17
2018-02-13T14:47:45.328Z,7.63
2018-02-13T14:50:13.382Z,7.23
2018-02-13T14:52:42.566Z,7.77
2018-02-13T14:55:10.817Z,8.97
2018-02-13T14:57:39.066Z,8.00
2018-02-13T15:00:08.953Z,9.40
2018-02-13T15:02:37.208Z,9.20
2018-02-13T15:05:06.137Z,8.10
2018-02-13T15:07:36.804Z,8.77
2018-02-13T15:10:06.557Z,8.33
2018-02-13T15:12:34.644Z,9.07
2018-02-13T15:15:03.403Z,9.37
2018-02-13T15:17:36.990Z,8.57
2018-02-13T15:20:07.154Z,10.53
2018-02-13T15:22:35.423Z,10.20
2018-02-13T15:25:04.493Z,10.30
2018-02-13T15:27:32.774Z,10.63
2018-02-13T15:30:01.034Z,10.60
2018-02-13T15:32:29.146Z,12.70
2018-02-13T15:34:57.400Z,11.67
2018-02-13T15:37:25.670Z,12.17
2018-02-13T15:39:53.923Z,14.00
2018-02-13T15:42:22.182Z,13.10
2018-02-13T15:44:50.442Z,15.37
2018-02-13T15:47:18.949Z,14.27
2018-02-13T15:49:47.279Z,13.57
2018-02-13T15:52:15.533Z,11.27
2018-02-13T15:54:43.818Z,13.97
2018-02-13T15:57:12.069Z,12.47
2018-02-13T15:59:40.328Z,14.30
2018-02-13T16:02:08.597Z,13.73
2018-02-13T16:04:36.851Z,12.50
2018-02-13T16:07:05.136Z,13.00
2018-02-13T16:09:33.385Z,12.00
2018-02-13T16:12:01.461Z,10.73
2018-02-13T16:14:29.724Z,11.43
2018-02-13T16:16:57.985Z,12.13
2018-02-13T16:19:26.249Z,13.00
2018-02-13T16:21:54.518Z,12.93
2018-02-13T16:24:24.061Z,12.37
2018-02-13T16:26:52.325Z,11.80
2018-02-13T16:29:20.569Z,9.93
2018-02-13T16:31:48.825Z,10.17
2018-02-13T16:34:17.088Z,9.90
2018-02-13T16:36:45.399Z,10.63
2018-02-13T16:39:13.657Z,12.87
2018-02-13T16:41:41.378Z,11.30
2018-02-13T16:44:09.821Z,13.60
2018-02-13T16:46:38.086Z,13.60
2018-02-13T16:49:06.338Z,12.33
2018-02-13T16:51:34.588Z,11.97
2018-02-13T16:54:02.859Z,12.10
2018-02-13T16:56:31.112Z,12.77
2018-02-13T16:58:59.380Z,10.57
2018-02-13T17:01:28.278Z,12.43
2018-02-13T17:04:05.943Z,14.33
2018-02-13T17:06:34.194Z,11.97
2018-02-13T17:09:02.262Z,12.93
2018-02-13T17:11:30.523Z,14.90
2018-02-13T17:13:59.419Z,14.10
2018-02-13T17:16:28.364Z,13.70
2018-02-13T17:18:56.624Z,12.90
2018-02-13T17:21:24.881Z,13.10
2018-02-13T17:23:53.136Z,16.17
2018-02-13T17:26:21.405Z,15.07
2018-02-13T17:28:50.240Z,14.43
2018-02-13T17:31:18.501Z,15.17
2018-02-13T17:33:46.768Z,13.10
2018-02-13T17:36:15.022Z,12.43
2018-02-13T17:38:43.298Z,13.40
2018-02-13T17:41:11.548Z,13.30
2018-02-13T17:43:39.813Z,13.37
2018-02-13T17:46:09.521Z,15.07
2018-02-13T17:48:37.773Z,14.07
2018-02-13T17:51:06.033Z,13.37
2018-02-13T17:53:34.298Z,16.60
2018-02-13T17:56:02.753Z,14.17
2018-02-13T17:58:31.004Z,13.77
2018-02-13T18:01:00.240Z,14.23
2018-02-13T18:03:28.510Z,15.23
2018-02-13T18:05:56.773Z,15.40
2018-02-13T18:08:25.033Z,14.30
2018-02-13T18:10:53.289Z,14.03
2018-02-13T18:13:21.897Z,13.97
2018-02-13T18:15:50.260Z,14.80
2018-02-13T18:18:18.517Z,14.93
2018-02-13T18:20:47.393Z,13.20
2018-02-13T18:23:16.273Z,15.77
2018-02-13T18:25:44.520Z,17.03
2018-02-13T18:28:12.777Z,16.30
2018-02-13T18:30:41.137Z,17.43
2018-02-13T18:33:09.760Z,16.37
2018-02-13T18:35:38.009Z,13.67
2018-02-13T18:38:06.257Z,15.73
2018-02-13T18:40:34.518Z,15.13
2018-02-13T18:43:02.775Z,15.47
2018-02-13T18:45:31.025Z,15.23
2018-02-13T18:47:59.719Z,17.03
2018-02-13T18:50:27.988Z,19.03
2018-02-13T18:55:25.738Z,18.10
2018-02-13T18:57:53.982Z,19.23
2018-02-13T19:00:22.238Z,21.13
2018-02-13T19:02:50.484Z,18.70
2018-02-13T19:05:18.756Z,19.10
2018-02-13T19:07:47.704Z,20.33
2018-02-13T19:10:15.954Z,20.70
2018-02-13T19:12:44.217Z,18.50
2018-02-13T19:15:12.611Z,20.10
2018-02-13T19:17:40.877Z,18.20
2018-02-13T19:20:09.139Z,18.23
2018-02-13T19:22:37.418Z,19.30
2018-02-13T19:25:05.697Z,18.27
2018-02-13T19:27:33.977Z,17.47
2018-02-13T19:30:02.233Z,17.83
2018-02-13T19:32:30.511Z,18.50
2018-02-13T19:34:58.785Z,17.70
2018-02-13T19:37:27.040Z,16.23
2018-02-13T19:39:55.309Z,15.93
2018-02-13T19:42:23.561Z,16.87
2018-02-13T19:44:51.808Z,16.43
2018-02-13T19:47:20.074Z,16.50
2018-02-13T19:49:48.428Z,16.20
2018-02-13T19:52:18.117Z,16.40
2018-02-13T19:54:46.788Z,16.17
2018-02-13T19:57:15.045Z,16.67
2018-02-13T19:59:43.315Z,16.50
2018-02-13T20:02:11.578Z,16.97
2018-02-13T20:04:39.829Z,17.30
2018-02-13T20:07:08.190Z,17.27
2018-02-13T20:09:36.450Z,19.23
2018-02-13T20:12:04.717Z,18.30
2018-02-13T20:14:32.976Z,17.83
2018-02-13T20:17:01.229Z,16.93
2018-02-13T20:19:29.497Z,20.63
2018-02-13T20:21:57.754Z,18.47
2018-02-13T20:24:26.022Z,17.70
2018-02-13T20:26:54.277Z,17.93
2018-02-13T20:29:23.128Z,17.80
2018-02-13T20:31:51.385Z,17.90
2018-02-13T20:34:19.643Z,17.40
2018-02-13T20:36:47.914Z,19.37
2018-02-13T20:39:16.162Z,17.60
2018-02-13T20:41:44.421Z,16.93
2018-02-13T20:44:12.675Z,20.40
2018-02-13T20:46:40.924Z,18.47
2018-02-13T20:49:09.485Z,20.13
2018-02-13T20:51:37.749Z,18.27
2018-02-13T20:54:06.006Z,18.53
2018-02-13T20:56:33.937Z,19.70
2018-02-13T20:59:02.340Z,18.03
2018-02-13T21:01:30.709Z,19.03
2018-02-13T21:03:59.207Z,18.30
2018-02-13T21:06:28.283Z,19.00
2018-02-13T21:08:56.538Z,18.90
2018-02-13T21:11:24.806Z,20.80
2018-02-13T21:13:53.902Z,17.97
2018-02-13T21:16:22.164Z,17.87
2018-02-13T21:18:51.773Z,18.63
2018-02-13T21:21:20.256Z,19.57
2018-02-13T21:23:48.510Z,17.70
2018-02-13T21:26:17.759Z,19.00
2018-02-13T21:28:46.465Z,17.13
2018-02-13T21:31:15.288Z,19.63
2018-02-13T21:33:44.422Z,18.77
2018-02-13T21:36:12.222Z,18.60
2018-02-13T21:38:40.479Z,17.80
2018-02-13T21:41:09.047Z,17.90
2018-02-13T21:43:37.901Z,17.77
2018-02-13T21:46:07.953Z,18.90
2018-02-13T21:48:36.218Z,20.47
2018-02-13T21:51:04.506Z,19.23
2018-02-13T21:53:32.771Z,19.93
2018-02-13T21:56:01.033Z,19.93
2018-02-13T21:58:29.328Z,18.33
2018-02-13T22:00:57.579Z,17.87
2018-02-13T22:03:25.843Z,20.37
2018-02-13T22:05:54.447Z,21.27
2018-02-13T22:08:23.450Z,19.63
2018-02-13T22:10:52.174Z,20.37
2018-02-13T22:13:19.746Z,21.60
2018-02-13T22:15:47.985Z,22.10
2018-02-13T22:18:16.175Z,21.87
2018-02-13T22:20:44.441Z,20.53
2018-02-13T22:23:12.713Z,22.67
2018-02-13T22:25:41.046Z,21.83
2018-02-13T22:28:09.297Z,23.03
2018-02-13T22:30:37.584Z,22.47
2018-02-13T22:33:05.871Z,23.20
2018-02-13T22:35:34.141Z,22.17
2018-02-13T22:38:02.442Z,23.10
2018-02-13T22:40:30.717Z,22.40
2018-02-13T22:42:58.981Z,23.47
2018-02-13T22:45:27.234Z,21.50
2018-02-13T22:47:55.490Z,24.83
2018-02-13T22:50:23.748Z,25.47
2018-02-13T22:52:52.005Z,26.30
2018-02-13T22:55:20.270Z,22.70
2018-02-13T22:57:48.523Z,23.67
2018-02-13T23:00:22.482Z,25.27
2018-02-13T23:02:50.737Z,24.07
2018-02-13T23:05:18.649Z,25.10
2018-02-13T23:07:46.907Z,24.93
2018-02-13T23:10:15.165Z,23.70
2018-02-13T23:12:43.422Z,25.60
2018-02-13T23:15:11.696Z,27.13
2018-02-13T23:17:41.516Z,24.27
2018-02-13T23:20:12.928Z,23.60
2018-02-13T23:22:41.540Z,26.00
2018-02-13T23:25:09.790Z,25.10
2018-02-13T23:27:38.044Z,25.50
2018-02-13T23:30:10.882Z,26.77
2018-02-13T23:32:39.727Z,27.13
2018-02-13T23:35:09.390Z,27.53
2018-02-13T23:37:37.656Z,26.80
2018-02-13T23:40:08.061Z,23.80
2018-02-13T23:42:36.318Z,27.00
2018-02-13T23:45:07.907Z,26.83
2018-02-13T23:47:36.160Z,27.80
2018-02-13T23:50:04.411Z,23.13
2018-02-13T23:52:32.957Z,25.43
2018-02-13T23:55:01.219Z,27.03
2018-02-13T23:57:29.918Z,24.77
2018-02-13T23:59:58.817Z,24.70
